createdAt,value
2019-03-20T00:00:46.687Z,11.90
2019-03-20T00:03:18.960Z,11.00
2019-03-20T00:05:50.322Z,9.30
2019-03-20T00:08:21.634Z,12.17
2019-03-20T00:10:53.248Z,11.70
2019-03-20T00:13:24.644Z,11.70
2019-03-20T00:15:55.987Z,7.97
2019-03-20T00:18:27.399Z,10.90
2019-03-20T00:20:58.844Z,9.33
2019-03-20T00:23:30.196Z,9.10
2019-03-20T00:26:01.573Z,8.27
2019-03-20T00:28:33.018Z,9.80
2019-03-20T00:31:04.391Z,6.30
2019-03-20T00:33:35.920Z,6.80
2019-03-20T00:36:07.215Z,7.67
2019-03-20T00:38:38.511Z,8.70
2019-03-20T00:41:09.744Z,11.20
2019-03-20T00:43:41.102Z,9.60
2019-03-20T00:46:12.391Z,6.60
2019-03-20T00:48:43.829Z,5.80
2019-03-20T00:51:15.126Z,8.50
2019-03-20T00:53:46.670Z,10.23
2019-03-20T00:56:18.231Z,7.33
2019-03-20T00:58:49.581Z,7.97
2019-03-20T01:01:20.927Z,10.20
2019-03-20T01:03:52.302Z,8.50
2019-03-20T01:06:23.752Z,7.33
2019-03-20T01:08:55.120Z,7.50
2019-03-20T01:11:26.422Z,7.23
2019-03-20T01:13:57.865Z,10.00
2019-03-20T01:16:29.221Z,8.73
2019-03-20T01:19:00.571Z,7.40
2019-03-20T01:21:31.934Z,7.57
2019-03-20T01:24:03.225Z,10.17
2019-03-20T01:26:34.503Z,7.13
2019-03-20T01:29:05.959Z,8.40
2019-03-20T01:31:37.253Z,10.07
2019-03-20T01:34:08.634Z,11.13
2019-03-20T01:36:39.857Z,8.40
2019-03-20T01:39:11.308Z,6.83
2019-03-20T01:41:42.674Z,8.40
2019-03-20T01:44:14.045Z,8.43
2019-03-20T01:46:45.283Z,9.00
2019-03-20T01:49:16.631Z,5.67
2019-03-20T01:51:47.862Z,8.37
2019-03-20T01:54:19.302Z,7.60
2019-03-20T01:56:50.606Z,6.60
2019-03-20T01:59:21.883Z,5.77
2019-03-20T02:01:53.187Z,10.00
2019-03-20T02:04:24.495Z,4.97
2019-03-20T02:06:56.299Z,7.73
2019-03-20T02:09:27.630Z,8.87
2019-03-20T02:11:58.924Z,8.07
2019-03-20T02:14:30.409Z,7.17
2019-03-20T02:17:01.743Z,7.13
2019-03-20T02:19:33.205Z,7.23
2019-03-20T02:22:04.543Z,11.97
2019-03-20T02:24:35.889Z,6.33
2019-03-20T02:27:07.113Z,5.20
2019-03-20T02:29:38.477Z,7.53
2019-03-20T02:32:09.692Z,8.47
2019-03-20T02:34:40.967Z,10.20
2019-03-20T02:37:12.230Z,7.13
2019-03-20T02:39:44.564Z,8.40
2019-03-20T02:42:15.874Z,6.10
2019-03-20T02:44:47.211Z,9.47
2019-03-20T02:47:18.501Z,6.23
2019-03-20T02:49:49.789Z,6.80
2019-03-20T02:52:21.117Z,9.87
2019-03-20T02:54:52.499Z,8.90
2019-03-20T02:57:23.724Z,7.43
2019-03-20T02:59:55.071Z,7.47
2019-03-20T03:02:26.296Z,13.53
2019-03-20T03:04:57.743Z,10.10
2019-03-20T03:11:07.583Z,10.20
2019-03-20T03:13:38.878Z,9.97
2019-03-20T03:16:10.304Z,8.13
2019-03-20T03:18:41.773Z,5.83
2019-03-20T03:21:13.140Z,10.27
2019-03-20T03:23:45.449Z,7.67
2019-03-20T03:26:16.801Z,12.13
2019-03-20T03:28:48.028Z,6.20
2019-03-20T03:31:19.350Z,8.13
2019-03-20T03:33:50.582Z,19.93
2019-03-20T03:36:22.087Z,12.40
2019-03-20T03:38:53.333Z,9.37
2019-03-20T03:41:24.675Z,10.20
2019-03-20T03:43:57.063Z,10.20
2019-03-20T03:46:29.419Z,10.30
2019-03-20T03:49:00.693Z,8.33
2019-03-20T03:51:32.029Z,6.63
2019-03-20T03:54:03.296Z,9.33
2019-03-20T03:56:34.604Z,9.83
2019-03-20T03:59:06.021Z,10.63
2019-03-20T04:01:37.319Z,11.10
2019-03-20T04:04:08.544Z,9.07
2019-03-20T04:06:39.904Z,9.50
2019-03-20T04:09:11.265Z,9.37
2019-03-20T04:11:42.564Z,8.13
2019-03-20T04:14:13.810Z,7.70
2019-03-20T04:16:45.152Z,7.33
2019-03-20T04:19:16.536Z,10.73
2019-03-20T04:21:47.873Z,8.90
2019-03-20T04:24:19.216Z,6.73
2019-03-20T04:26:50.494Z,8.47
2019-03-20T04:29:22.944Z,10.73
2019-03-20T04:31:54.340Z,13.67
2019-03-20T04:34:25.723Z,13.90
2019-03-20T04:36:57.167Z,8.93
2019-03-20T04:39:28.404Z,8.47
2019-03-20T04:41:59.698Z,8.43
2019-03-20T04:44:30.928Z,8.77
2019-03-20T04:47:02.273Z,8.87
2019-03-20T04:49:33.819Z,12.50
2019-03-20T04:52:05.277Z,8.87
2019-03-20T04:54:36.536Z,8.07
2019-03-20T04:57:07.824Z,8.50
2019-03-20T04:59:39.128Z,9.00
2019-03-20T05:02:11.551Z,11.07
2019-03-20T05:04:43.862Z,12.20
2019-03-20T05:07:15.134Z,8.70
2019-03-20T05:09:46.530Z,9.53
2019-03-20T05:12:18.955Z,12.40
2019-03-20T05:14:50.333Z,12.27
2019-03-20T05:17:21.848Z,9.83
2019-03-20T05:19:53.073Z,6.17
2019-03-20T05:22:24.412Z,11.70
2019-03-20T05:24:55.665Z,6.13
2019-03-20T05:27:27.064Z,8.73
2019-03-20T05:29:58.370Z,13.30
2019-03-20T05:32:29.755Z,11.23
2019-03-20T05:35:00.988Z,7.40
2019-03-20T05:37:32.411Z,13.33
2019-03-20T05:40:05.596Z,12.73
2019-03-20T05:42:36.876Z,12.00
2019-03-20T05:45:16.190Z,7.43
2019-03-20T05:47:47.563Z,8.73
2019-03-20T05:50:19.288Z,10.87
2019-03-20T05:52:51.217Z,9.53
2019-03-20T05:55:26.800Z,8.47
2019-03-20T05:58:13.794Z,12.90
2019-03-20T06:00:45.316Z,9.37
2019-03-20T06:03:16.664Z,10.53
2019-03-20T06:05:47.958Z,13.50
2019-03-20T06:08:19.285Z,9.00
2019-03-20T06:10:50.694Z,10.10
2019-03-20T06:13:23.879Z,8.43
2019-03-20T06:15:55.185Z,9.90
2019-03-20T06:18:37.004Z,11.17
2019-03-20T06:21:10.049Z,8.57
2019-03-20T06:23:41.324Z,12.63
2019-03-20T06:26:12.726Z,11.37
2019-03-20T06:28:44.128Z,12.87
2019-03-20T06:31:15.572Z,14.30
2019-03-20T06:33:46.848Z,8.47
2019-03-20T06:36:18.133Z,8.43
2019-03-20T06:38:49.771Z,10.67
2019-03-20T06:41:21.007Z,16.40
2019-03-20T06:43:52.237Z,11.93
2019-03-20T06:46:23.602Z,14.43
2019-03-20T06:48:54.820Z,10.73
2019-03-20T06:51:26.118Z,11.93
2019-03-20T06:53:57.511Z,20.00
2019-03-20T06:56:28.727Z,9.77
2019-03-20T06:59:31.444Z,12.27
2019-03-20T07:02:06.162Z,13.33
2019-03-20T07:05:35.654Z,17.30
2019-03-20T07:08:07.256Z,12.87
2019-03-20T07:11:03.653Z,13.10
2019-03-20T07:13:37.101Z,14.10
2019-03-20T07:16:08.668Z,12.17
2019-03-20T07:18:40.143Z,15.03
2019-03-20T07:21:11.544Z,11.03
2019-03-20T07:23:42.818Z,11.70
2019-03-20T07:26:14.242Z,11.63
2019-03-20T07:28:45.533Z,13.27
2019-03-20T07:31:16.820Z,13.87
2019-03-20T07:33:48.108Z,11.43
2019-03-20T07:36:19.384Z,11.63
2019-03-20T07:38:50.678Z,14.43
2019-03-20T07:41:22.178Z,10.90
2019-03-20T07:43:53.432Z,19.03
2019-03-20T07:46:24.917Z,11.23
2019-03-20T07:48:56.137Z,13.87
2019-03-20T07:51:27.416Z,32.30
2019-03-20T07:53:58.694Z,15.40
2019-03-20T07:56:29.990Z,16.83
2019-03-20T07:59:01.296Z,19.77
2019-03-20T08:01:32.654Z,23.10
2019-03-20T08:04:04.018Z,18.77
2019-03-20T08:06:35.314Z,19.40
2019-03-20T08:09:08.475Z,12.77
2019-03-20T08:11:39.937Z,14.13
2019-03-20T08:14:11.220Z,18.00
2019-03-20T08:16:42.663Z,16.03
2019-03-20T08:19:13.990Z,12.37
2019-03-20T08:21:45.399Z,13.80
2019-03-20T08:24:16.774Z,15.03
2019-03-20T08:26:48.154Z,13.53
2019-03-20T08:29:19.484Z,19.10
2019-03-20T08:31:50.920Z,17.70
2019-03-20T08:34:22.218Z,14.77
2019-03-20T08:36:53.628Z,18.17
2019-03-20T08:39:24.885Z,16.63
2019-03-20T08:41:56.378Z,15.13
2019-03-20T08:44:27.803Z,15.67
2019-03-20T08:46:59.315Z,19.73
2019-03-20T08:49:30.643Z,18.60
2019-03-20T08:52:01.885Z,18.00
2019-03-20T08:54:33.260Z,20.23
2019-03-20T08:57:04.799Z,18.70
2019-03-20T08:59:36.241Z,18.70
2019-03-20T09:02:07.555Z,19.33
2019-03-20T09:04:38.923Z,19.20
2019-03-20T09:07:10.317Z,17.70
2019-03-20T09:09:41.693Z,20.70
2019-03-20T09:12:13.085Z,20.63
2019-03-20T09:14:45.286Z,25.48
2019-03-20T09:17:16.598Z,17.30
2019-03-20T09:19:48.054Z,18.77
2019-03-20T09:22:19.515Z,19.87
2019-03-20T09:24:50.983Z,16.95
2019-03-20T09:27:22.374Z,18.05
2019-03-20T09:29:53.725Z,20.67
2019-03-20T09:32:25.093Z,21.40
2019-03-20T09:34:56.423Z,18.65
2019-03-20T09:37:27.862Z,17.40
2019-03-20T09:39:59.139Z,15.77
2019-03-20T09:42:30.479Z,18.23
2019-03-20T09:45:01.830Z,18.67
2019-03-20T09:47:33.197Z,19.07
2019-03-20T09:50:08.658Z,16.35
2019-03-20T09:52:40.039Z,16.37
2019-03-20T09:55:14.439Z,15.00
2019-03-20T09:57:45.815Z,16.02
2019-03-20T10:00:26.090Z,14.00
2019-03-20T10:02:57.517Z,13.80
2019-03-20T10:05:28.741Z,13.20
2019-03-20T10:08:00.024Z,14.95
2019-03-20T10:10:32.396Z,15.20
2019-03-20T10:13:03.811Z,12.18
2019-03-20T10:15:35.116Z,10.23
2019-03-20T10:18:06.545Z,12.68
2019-03-20T10:20:37.862Z,12.93
2019-03-20T10:23:09.114Z,16.75
2019-03-20T10:25:44.487Z,17.57
2019-03-20T10:28:13.462Z,11.05
2019-03-20T10:30:44.744Z,11.28
2019-03-20T10:33:16.649Z,14.45
2019-03-20T10:35:50.513Z,12.07
2019-03-20T10:38:21.067Z,11.33
2019-03-20T10:40:52.388Z,9.48
2019-03-20T10:43:23.747Z,12.10
2019-03-20T10:45:55.050Z,8.48
2019-03-20T10:48:26.439Z,10.20
2019-03-20T10:50:57.741Z,11.10
2019-03-20T10:53:29.052Z,13.88
2019-03-20T10:56:00.360Z,8.58
2019-03-20T10:58:31.659Z,9.25
2019-03-20T11:01:03.039Z,10.18
2019-03-20T11:03:34.412Z,7.72
2019-03-20T11:06:05.784Z,10.35
2019-03-20T11:08:38.139Z,6.00
2019-03-20T11:11:09.442Z,8.23
2019-03-20T11:13:40.726Z,8.35
2019-03-20T11:16:12.040Z,6.10
2019-03-20T11:18:43.477Z,5.28
2019-03-20T11:21:14.754Z,6.83
2019-03-20T11:23:46.114Z,7.28
2019-03-20T11:26:17.484Z,7.85
2019-03-20T11:28:48.853Z,8.15
2019-03-20T11:31:20.547Z,12.95
2019-03-20T11:33:51.983Z,6.83
2019-03-20T11:36:23.231Z,6.72
2019-03-20T11:38:54.738Z,10.82
2019-03-20T11:41:26.045Z,8.10
2019-03-20T11:43:57.406Z,11.40
2019-03-20T11:46:28.815Z,12.75
2019-03-20T11:49:00.338Z,8.35
2019-03-20T11:51:31.650Z,8.40
2019-03-20T11:54:03.145Z,8.75
2019-03-20T11:56:34.453Z,7.58
2019-03-20T11:59:05.950Z,6.97
2019-03-20T12:01:37.183Z,9.13
2019-03-20T12:04:09.534Z,5.45
2019-03-20T12:06:40.919Z,10.18
2019-03-20T12:09:12.219Z,7.42
2019-03-20T12:11:46.164Z,10.00
2019-03-20T12:14:16.529Z,10.82
2019-03-20T12:16:47.766Z,10.40
2019-03-20T12:19:19.359Z,11.73
2019-03-20T12:21:52.408Z,10.98
2019-03-20T12:24:23.830Z,10.10
2019-03-20T12:26:56.164Z,11.12
2019-03-20T12:29:27.487Z,10.10
2019-03-20T12:31:58.812Z,7.80
2019-03-20T12:34:30.231Z,10.15
2019-03-20T12:37:01.547Z,9.30
2019-03-20T12:39:32.897Z,9.38
2019-03-20T12:42:04.202Z,10.70
2019-03-20T12:44:35.658Z,10.15
2019-03-20T12:47:06.966Z,11.53
2019-03-20T12:49:38.321Z,10.35
2019-03-20T12:52:09.654Z,14.33
2019-03-20T12:54:40.946Z,9.28
2019-03-20T12:57:12.171Z,10.82
2019-03-20T12:59:43.503Z,10.30
2019-03-20T13:02:14.819Z,8.05
2019-03-20T13:04:46.255Z,14.50
2019-03-20T13:07:17.618Z,12.23
2019-03-20T13:09:48.982Z,11.55
2019-03-20T13:12:20.217Z,12.30
2019-03-20T13:14:52.917Z,12.33
2019-03-20T13:17:24.373Z,8.88
2019-03-20T13:19:56.585Z,11.57
2019-03-20T13:22:28.121Z,10.68
2019-03-20T13:24:59.367Z,13.83
2019-03-20T13:27:30.723Z,10.82
2019-03-20T13:30:02.965Z,9.95
2019-03-20T13:32:34.445Z,13.25
2019-03-20T13:35:08.984Z,9.28
2019-03-20T13:37:46.230Z,12.00
2019-03-20T13:40:17.601Z,8.93
2019-03-20T13:42:49.094Z,10.58
2019-03-20T13:48:35.583Z,11.78
2019-03-20T13:51:07.224Z,12.35
2019-03-20T13:53:38.720Z,13.58
2019-03-20T13:56:10.222Z,10.90
2019-03-20T13:58:41.806Z,15.23
2019-03-20T14:01:15.829Z,11.15
2019-03-20T14:03:48.738Z,13.83
2019-03-20T14:06:20.112Z,10.05
2019-03-20T14:08:51.517Z,12.20
2019-03-20T14:11:22.931Z,10.80
2019-03-20T14:13:54.245Z,16.93
2019-03-20T14:16:25.582Z,9.95
2019-03-20T14:18:56.901Z,10.35
2019-03-20T14:21:31.491Z,8.95
2019-03-20T14:24:02.811Z,10.68
2019-03-20T14:26:34.280Z,11.70
2019-03-20T14:29:07.313Z,11.18
2019-03-20T14:31:38.708Z,9.05
2019-03-20T14:34:10.205Z,11.45
2019-03-20T14:36:41.695Z,9.18
2019-03-20T14:39:13.092Z,10.45
2019-03-20T14:41:44.473Z,10.30
2019-03-20T14:44:15.778Z,10.90
2019-03-20T14:46:47.881Z,12.20
2019-03-20T14:49:19.178Z,10.40
2019-03-20T14:51:50.540Z,9.68
2019-03-20T14:54:21.888Z,11.60
2019-03-20T14:56:55.172Z,9.45
2019-03-20T14:59:26.423Z,9.13
2019-03-20T15:02:02.010Z,13.95
2019-03-20T15:04:33.326Z,10.78
2019-03-20T15:07:04.781Z,14.35
2019-03-20T15:09:37.133Z,10.60
2019-03-20T15:12:08.563Z,9.88
2019-03-20T15:14:39.888Z,10.72
2019-03-20T15:17:13.344Z,11.90
2019-03-20T15:19:44.847Z,10.15
2019-03-20T15:22:16.185Z,12.33
2019-03-20T15:24:47.910Z,12.40
2019-03-20T15:27:35.222Z,14.47
2019-03-20T15:30:22.108Z,11.53
2019-03-20T15:32:53.755Z,13.32
2019-03-20T15:35:27.753Z,12.13
2019-03-20T15:37:59.170Z,10.72
2019-03-20T15:40:32.101Z,9.83
2019-03-20T15:43:03.440Z,9.70
2019-03-20T15:45:34.742Z,9.50
2019-03-20T15:48:06.474Z,11.03
2019-03-20T15:50:43.321Z,13.30
2019-03-20T15:53:22.391Z,10.58
2019-03-20T15:55:53.807Z,10.20
2019-03-20T15:58:25.197Z,12.68
2019-03-20T16:00:58.033Z,12.05
2019-03-20T16:03:48.123Z,11.30
2019-03-20T16:06:19.471Z,14.75
2019-03-20T16:08:55.042Z,10.63
2019-03-20T16:11:26.591Z,8.98
2019-03-20T16:14:03.234Z,12.45
2019-03-20T16:16:37.246Z,10.93
2019-03-20T16:19:08.548Z,9.73
2019-03-20T16:21:41.577Z,9.60
2019-03-20T16:24:14.048Z,13.48
2019-03-20T16:26:45.429Z,7.37
2019-03-20T16:29:16.790Z,9.70
2019-03-20T16:31:48.109Z,10.43
2019-03-20T16:34:19.661Z,10.13
2019-03-20T16:36:56.734Z,9.33
2019-03-20T16:39:29.709Z,13.55
2019-03-20T16:42:02.311Z,8.55
2019-03-20T16:44:33.766Z,12.85
2019-03-20T16:47:05.205Z,8.83
2019-03-20T16:49:38.399Z,11.28
2019-03-20T16:52:09.719Z,7.80
2019-03-20T16:54:40.959Z,11.00
2019-03-20T16:57:12.454Z,7.92
2019-03-20T16:59:44.352Z,8.58
2019-03-20T17:02:16.163Z,10.30
2019-03-20T17:04:47.752Z,12.40
2019-03-20T17:07:19.258Z,11.50
2019-03-20T17:09:50.722Z,10.35
2019-03-20T17:12:22.079Z,10.03
2019-03-20T17:14:53.455Z,8.30
2019-03-20T17:17:24.771Z,8.80
2019-03-20T17:19:57.188Z,17.37
2019-03-20T17:22:29.677Z,14.13
2019-03-20T17:25:02.165Z,17.55
2019-03-20T17:27:33.512Z,17.52
2019-03-20T17:30:08.139Z,17.15
2019-03-20T17:32:39.458Z,17.50
2019-03-20T17:35:16.969Z,12.28
2019-03-20T17:37:48.296Z,13.50
2019-03-20T17:40:30.842Z,10.50
2019-03-20T17:43:06.899Z,12.00
2019-03-20T17:45:38.274Z,13.83
2019-03-20T17:48:09.609Z,10.00
2019-03-20T17:50:42.013Z,10.78
2019-03-20T17:53:13.431Z,19.30
2019-03-20T17:55:44.809Z,13.25
2019-03-20T17:58:16.632Z,12.98
2019-03-20T18:00:49.734Z,17.87
2019-03-20T18:03:21.038Z,12.75
2019-03-20T18:05:52.431Z,15.58
2019-03-20T18:08:25.311Z,11.45
2019-03-20T18:10:56.675Z,8.50
2019-03-20T18:13:29.006Z,11.15
2019-03-20T18:16:02.209Z,8.23
2019-03-20T18:18:37.504Z,10.75
2019-03-20T18:21:09.898Z,10.00
2019-03-20T18:23:53.400Z,10.23
2019-03-20T18:26:25.732Z,13.68
2019-03-20T18:28:57.018Z,13.60
2019-03-20T18:31:28.363Z,15.30
2019-03-20T18:33:59.982Z,12.00
2019-03-20T18:36:31.299Z,15.18
2019-03-20T18:39:02.728Z,13.53
2019-03-20T18:41:34.627Z,10.80
2019-03-20T18:44:07.709Z,12.95
2019-03-20T18:46:39.037Z,14.10
2019-03-20T18:49:10.358Z,13.50
2019-03-20T18:51:41.831Z,13.75
2019-03-20T18:54:13.165Z,16.40
2019-03-20T18:56:44.552Z,16.00
2019-03-20T18:59:15.837Z,19.40
2019-03-20T19:01:49.744Z,22.22
2019-03-20T19:04:21.103Z,20.27
2019-03-20T19:06:52.491Z,12.15
2019-03-20T19:09:23.800Z,15.35
2019-03-20T19:11:55.205Z,19.45
2019-03-20T19:14:26.873Z,19.82
2019-03-20T19:16:58.186Z,18.98
2019-03-20T19:19:30.142Z,15.23
2019-03-20T19:22:01.559Z,15.23
2019-03-20T19:24:32.862Z,19.85
2019-03-20T19:27:04.160Z,16.75
2019-03-20T19:29:35.446Z,17.75
2019-03-20T19:32:15.585Z,19.95
2019-03-20T19:34:46.938Z,18.70
2019-03-20T19:37:18.258Z,20.23
2019-03-20T19:39:50.960Z,21.02
2019-03-20T19:42:23.830Z,15.40
2019-03-20T19:44:55.132Z,21.23
2019-03-20T19:47:26.369Z,19.42
2019-03-20T19:49:57.733Z,18.40
2019-03-20T19:52:29.018Z,18.23
2019-03-20T19:55:00.515Z,19.15
2019-03-20T19:57:31.811Z,17.48
2019-03-20T20:00:03.216Z,17.55
2019-03-20T20:02:35.159Z,15.25
2019-03-20T20:05:15.812Z,15.30
2019-03-20T20:07:43.305Z,16.65
2019-03-20T20:10:16.695Z,15.10
2019-03-20T20:12:49.253Z,14.35
2019-03-20T20:15:30.623Z,14.05
2019-03-20T20:18:02.005Z,14.28
2019-03-20T20:20:41.157Z,14.10
2019-03-20T20:23:14.459Z,16.57
2019-03-20T20:25:47.200Z,16.07
2019-03-20T20:28:18.617Z,16.50
2019-03-20T20:30:49.966Z,14.95
2019-03-20T20:33:21.291Z,16.07
2019-03-20T20:35:52.619Z,13.78
2019-03-20T20:38:41.151Z,12.68
2019-03-20T20:41:12.511Z,11.43
2019-03-20T20:43:43.733Z,12.82
2019-03-20T20:46:15.018Z,14.70
2019-03-20T20:48:47.324Z,13.45
2019-03-20T20:51:18.628Z,12.95
2019-03-20T20:53:49.958Z,16.57
2019-03-20T20:56:22.657Z,13.68
2019-03-20T20:58:54.119Z,14.57
2019-03-20T21:01:25.465Z,14.87
2019-03-20T21:03:56.707Z,15.07
2019-03-20T21:06:28.031Z,14.38
2019-03-20T21:09:02.712Z,13.70
2019-03-20T21:11:35.403Z,13.22
2019-03-20T21:14:06.824Z,10.60
2019-03-20T21:16:39.121Z,10.97
2019-03-20T21:19:32.134Z,14.27
2019-03-20T21:22:32.854Z,10.72
2019-03-20T21:25:06.887Z,13.55
2019-03-20T21:28:26.888Z,13.77
2019-03-20T21:31:02.892Z,10.93
2019-03-20T21:33:58.368Z,10.95
2019-03-20T21:36:58.538Z,11.83
2019-03-20T21:39:29.807Z,9.40
2019-03-20T21:42:26.580Z,13.33
2019-03-20T21:45:40.192Z,12.53
2019-03-20T21:48:11.412Z,12.20
2019-03-20T21:51:02.323Z,13.17
2019-03-20T21:54:08.033Z,13.33
2019-03-20T21:57:11.067Z,13.63
2019-03-20T21:59:59.167Z,12.33
2019-03-20T22:02:41.694Z,10.17
2019-03-20T22:05:23.566Z,10.43
2019-03-20T22:07:54.970Z,13.28
2019-03-20T22:10:30.958Z,11.70
2019-03-20T22:13:19.196Z,15.77
2019-03-20T22:16:18.673Z,10.40
2019-03-20T22:19:28.958Z,12.90
2019-03-20T22:22:26.186Z,13.37
2019-03-20T22:25:29.772Z,12.23
2019-03-20T22:28:48.235Z,21.20
2019-03-20T22:31:20.609Z,18.73
2019-03-20T22:34:32.868Z,17.83
2019-03-20T22:37:04.277Z,17.77
2019-03-20T22:40:16.629Z,16.33
2019-03-20T22:43:29.388Z,17.07
2019-03-20T22:46:40.322Z,14.80
2019-03-20T22:49:52.652Z,12.97
2019-03-20T22:52:31.386Z,13.63
2019-03-20T22:55:38.895Z,12.03
2019-03-20T22:58:21.064Z,16.60
2019-03-20T23:00:57.239Z,18.63
2019-03-20T23:04:04.634Z,15.73
2019-03-20T23:06:35.855Z,15.27
2019-03-20T23:09:09.346Z,14.07
2019-03-20T23:11:40.782Z,15.00
2019-03-20T23:14:12.199Z,16.23
2019-03-20T23:16:43.492Z,13.80
2019-03-20T23:19:14.990Z,12.70
2019-03-20T23:21:46.282Z,12.67
2019-03-20T23:24:17.621Z,11.83
2019-03-20T23:26:49.227Z,11.47
2019-03-20T23:29:21.022Z,13.53
2019-03-20T23:31:52.316Z,12.73
2019-03-20T23:34:25.009Z,11.97
2019-03-20T23:36:56.374Z,11.33
2019-03-20T23:39:27.790Z,13.53
2019-03-20T23:41:59.390Z,15.87
2019-03-20T23:44:30.730Z,11.33
2019-03-20T23:47:02.099Z,13.97
2019-03-20T23:49:33.461Z,12.73
2019-03-20T23:52:04.830Z,11.63
2019-03-20T23:54:45.206Z,11.27
2019-03-20T23:57:17.137Z,12.83
2019-03-20T23:59:48.620Z,15.23
